sensor_id;sensor_type;location;lat;lon;timestamp;P1;durP1;ratioP1;P2;durP2;ratioP2
23496;SDS011;11925;48.122;11.560;2023-02-11T00:01:12;19.38;;;12.65;;
23496;SDS011;11925;48.122;11.560;2023-02-11T00:03:45;22.02;;;12.38;;
23496;SDS011;11925;48.122;11.560;2023-02-11T00:06:15;21.00;;;12.60;;
23496;SDS011;11925;48.122;11.560;2023-02-11T00:08:44;22.23;;;12.38;;
23496;SDS011;11925;48.122;11.560;2023-02-11T00:11:13;20.92;;;13.05;;
23496;SDS011;11925;48.122;11.560;2023-02-11T00:13:42;20.10;;;12.45;;
23496;SDS011;11925;48.122;11.560;2023-02-11T00:16:12;20.80;;;12.75;;
23496;SDS011;11925;48.122;11.560;2023-02-11T00:18:41;21.23;;;12.68;;
23496;SDS011;11925;48.122;11.560;2023-02-11T00:21:11;26.30;;;14.13;;
23496;SDS011;11925;48.122;11.560;2023-02-11T00:23:42;22.67;;;12.83;;
23496;SDS011;11925;48.122;11.560;2023-02-11T00:26:11;24.67;;;13.10;;
23496;SDS011;11925;48.122;11.560;2023-02-11T00:28:41;22.15;;;12.82;;
23496;SDS011;11925;48.122;11.560;2023-02-11T00:31:10;21.00;;;13.85;;
23496;SDS011;11925;48.122;11.560;2023-02-11T00:33:39;20.77;;;12.75;;
23496;SDS011;11925;48.122;11.560;2023-02-11T00:36:07;22.38;;;13.38;;
23496;SDS011;11925;48.122;11.560;2023-02-11T00:38:38;21.98;;;13.05;;
23496;SDS011;11925;48.122;11.560;2023-02-11T00:41:08;19.10;;;13.13;;
23496;SDS011;11925;48.122;11.560;2023-02-11T00:43:36;34.50;;;18.92;;
23496;SDS011;11925;48.122;11.560;2023-02-11T00:46:04;28.75;;;15.80;;
23496;SDS011;11925;48.122;11.560;2023-02-11T00:48:33;22.10;;;13.88;;
23496;SDS011;11925;48.122;11.560;2023-02-11T00:51:01;21.27;;;13.10;;
23496;SDS011;11925;48.122;11.560;2023-02-11T00:53:30;22.05;;;13.13;;
23496;SDS011;11925;48.122;11.560;2023-02-11T00:55:59;19.48;;;12.52;;
23496;SDS011;11925;48.122;11.560;2023-02-11T00:58:29;20.92;;;12.50;;
23496;SDS011;11925;48.122;11.560;2023-02-11T01:00:57;22.77;;;13.85;;
23496;SDS011;11925;48.122;11.560;2023-02-11T01:03:26;22.90;;;13.55;;
23496;SDS011;11925;48.122;11.560;2023-02-11T01:05:54;21.65;;;13.30;;
23496;SDS011;11925;48.122;11.560;2023-02-11T01:08:23;24.45;;;13.20;;
23496;SDS011;11925;48.122;11.560;2023-02-11T01:10:55;21.58;;;13.90;;
23496;SDS011;11925;48.122;11.560;2023-02-11T01:13:24;20.48;;;13.32;;
23496;SDS011;11925;48.122;11.560;2023-02-11T01:15:54;21.90;;;13.18;;
23496;SDS011;11925;48.122;11.560;2023-02-11T01:18:23;21.10;;;13.18;;
23496;SDS011;11925;48.122;11.560;2023-02-11T01:20:52;23.20;;;13.55;;
23496;SDS011;11925;48.122;11.560;2023-02-11T01:23:22;22.35;;;13.93;;
23496;SDS011;11925;48.122;11.560;2023-02-11T01:25:50;21.63;;;13.70;;
23496;SDS011;11925;48.122;11.560;2023-02-11T01:28:20;22.85;;;13.48;;
23496;SDS011;11925;48.122;11.560;2023-02-11T01:30:51;20.38;;;13.35;;
23496;SDS011;11925;48.122;11.560;2023-02-11T01:33:21;21.88;;;12.90;;
23496;SDS011;11925;48.122;11.560;2023-02-11T01:35:50;21.07;;;12.90;;
23496;SDS011;11925;48.122;11.560;2023-02-11T01:38:20;19.75;;;12.77;;
23496;SDS011;11925;48.122;11.560;2023-02-11T01:40:52;21.30;;;12.43;;
23496;SDS011;11925;48.122;11.560;2023-02-11T01:43:22;20.55;;;12.02;;
23496;SDS011;11925;48.122;11.560;2023-02-11T01:46:03;20.67;;;12.50;;
23496;SDS011;11925;48.122;11.560;2023-02-11T01:48:48;22.40;;;12.75;;
23496;SDS011;11925;48.122;11.560;2023-02-11T01:51:20;21.83;;;12.55;;
23496;SDS011;11925;48.122;11.560;2023-02-11T01:53:50;20.88;;;12.48;;
23496;SDS011;11925;48.122;11.560;2023-02-11T01:56:38;20.52;;;12.63;;
23496;SDS011;11925;48.122;11.560;2023-02-11T01:59:29;20.35;;;12.35;;
23496;SDS011;11925;48.122;11.560;2023-02-11T02:02:01;21.27;;;12.32;;
23496;SDS011;11925;48.122;11.560;2023-02-11T02:04:37;22.60;;;12.75;;
23496;SDS011;11925;48.122;11.560;2023-02-11T02:07:13;21.38;;;12.55;;
23496;SDS011;11925;48.122;11.560;2023-02-11T02:09:47;20.70;;;11.98;;
23496;SDS011;11925;48.122;11.560;2023-02-11T02:12:19;20.67;;;12.45;;
23496;SDS011;11925;48.122;11.560;2023-02-11T02:14:47;20.15;;;12.35;;
23496;SDS011;11925;48.122;11.560;2023-02-11T02:17:18;19.23;;;11.75;;
23496;SDS011;11925;48.122;11.560;2023-02-11T02:23:11;19.17;;;12.00;;
23496;SDS011;11925;48.122;11.560;2023-02-11T02:25:59;19.88;;;12.13;;
23496;SDS011;11925;48.122;11.560;2023-02-11T02:28:50;19.73;;;12.02;;
23496;SDS011;11925;48.122;11.560;2023-02-11T02:31:44;19.10;;;11.70;;
23496;SDS011;11925;48.122;11.560;2023-02-11T02:34:32;18.80;;;11.52;;
23496;SDS011;11925;48.122;11.560;2023-02-11T02:37:09;18.30;;;11.18;;
23496;SDS011;11925;48.122;11.560;2023-02-11T02:39:43;21.83;;;12.00;;
23496;SDS011;11925;48.122;11.560;2023-02-11T02:42:15;21.23;;;11.95;;
23496;SDS011;11925;48.122;11.560;2023-02-11T02:44:46;18.83;;;11.73;;
23496;SDS011;11925;48.122;11.560;2023-02-11T02:47:15;21.23;;;11.98;;
23496;SDS011;11925;48.122;11.560;2023-02-11T02:49:45;22.58;;;12.35;;
23496;SDS011;11925;48.122;11.560;2023-02-11T02:52:15;18.52;;;11.27;;
23496;SDS011;11925;48.122;11.560;2023-02-11T02:54:55;18.55;;;12.02;;
23496;SDS011;11925;48.122;11.560;2023-02-11T02:57:50;19.63;;;11.57;;
23496;SDS011;11925;48.122;11.560;2023-02-11T03:00:33;18.15;;;11.55;;
23496;SDS011;11925;48.122;11.560;2023-02-11T03:03:14;21.77;;;11.50;;
23496;SDS011;11925;48.122;11.560;2023-02-11T03:05:51;21.95;;;12.07;;
23496;SDS011;11925;48.122;11.560;2023-02-11T03:08:24;19.17;;;11.65;;
23496;SDS011;11925;48.122;11.560;2023-02-11T03:10:57;21.02;;;11.07;;
23496;SDS011;11925;48.122;11.560;2023-02-11T03:13:28;19.00;;;11.40;;
23496;SDS011;11925;48.122;11.560;2023-02-11T03:15:59;19.02;;;11.18;;
23496;SDS011;11925;48.122;11.560;2023-02-11T03:18:32;20.00;;;10.68;;
23496;SDS011;11925;48.122;11.560;2023-02-11T03:21:05;20.58;;;10.82;;
23496;SDS011;11925;48.122;11.560;2023-02-11T03:23:35;17.20;;;10.32;;
23496;SDS011;11925;48.122;11.560;2023-02-11T03:26:08;18.17;;;10.20;;
23496;SDS011;11925;48.122;11.560;2023-02-11T03:28:41;16.20;;;10.07;;
23496;SDS011;11925;48.122;11.560;2023-02-11T03:31:17;17.77;;;9.77;;
23496;SDS011;11925;48.122;11.560;2023-02-11T03:33:54;15.43;;;9.45;;
23496;SDS011;11925;48.122;11.560;2023-02-11T03:36:31;13.63;;;9.10;;
23496;SDS011;11925;48.122;11.560;2023-02-11T03:39:03;13.68;;;9.25;;
23496;SDS011;11925;48.122;11.560;2023-02-11T03:41:32;15.75;;;9.20;;
23496;SDS011;11925;48.122;11.560;2023-02-11T03:44:02;14.30;;;8.60;;
23496;SDS011;11925;48.122;11.560;2023-02-11T03:46:33;14.55;;;9.10;;
23496;SDS011;11925;48.122;11.560;2023-02-11T03:49:07;15.77;;;9.73;;
23496;SDS011;11925;48.122;11.560;2023-02-11T03:51:41;14.85;;;9.50;;
23496;SDS011;11925;48.122;11.560;2023-02-11T03:54:11;12.98;;;9.18;;
23496;SDS011;11925;48.122;11.560;2023-02-11T03:56:45;15.00;;;9.05;;
23496;SDS011;11925;48.122;11.560;2023-02-11T03:59:17;14.70;;;8.05;;
23496;SDS011;11925;48.122;11.560;2023-02-11T04:01:46;14.57;;;8.98;;
23496;SDS011;11925;48.122;11.560;2023-02-11T04:04:14;12.32;;;8.25;;
23496;SDS011;11925;48.122;11.560;2023-02-11T04:06:44;15.32;;;8.73;;
23496;SDS011;11925;48.122;11.560;2023-02-11T04:09:13;14.20;;;8.82;;
23496;SDS011;11925;48.122;11.560;2023-02-11T04:11:41;13.57;;;8.25;;
23496;SDS011;11925;48.122;11.560;2023-02-11T04:14:09;14.73;;;8.25;;
23496;SDS011;11925;48.122;11.560;2023-02-11T04:16:37;13.43;;;8.07;;
23496;SDS011;11925;48.122;11.560;2023-02-11T04:19:06;13.70;;;8.65;;
23496;SDS011;11925;48.122;11.560;2023-02-11T04:21:34;13.63;;;8.73;;
23496;SDS011;11925;48.122;11.560;2023-02-11T04:24:04;14.15;;;8.20;;
23496;SDS011;11925;48.122;11.560;2023-02-11T04:26:32;13.32;;;8.13;;
23496;SDS011;11925;48.122;11.560;2023-02-11T04:29:01;11.32;;;7.97;;
23496;SDS011;11925;48.122;11.560;2023-02-11T04:31:29;12.32;;;8.00;;
23496;SDS011;11925;48.122;11.560;2023-02-11T04:33:58;12.52;;;7.82;;
23496;SDS011;11925;48.122;11.560;2023-02-11T04:36:26;12.80;;;7.85;;
23496;SDS011;11925;48.122;11.560;2023-02-11T04:38:54;12.05;;;7.63;;
23496;SDS011;11925;48.122;11.560;2023-02-11T04:41:24;11.70;;;7.35;;
23496;SDS011;11925;48.122;11.560;2023-02-11T04:43:52;13.95;;;8.20;;
23496;SDS011;11925;48.122;11.560;2023-02-11T04:46:20;12.68;;;7.78;;
23496;SDS011;11925;48.122;11.560;2023-02-11T04:48:49;16.17;;;8.35;;
23496;SDS011;11925;48.122;11.560;2023-02-11T04:51:17;15.13;;;8.60;;
23496;SDS011;11925;48.122;11.560;2023-02-11T04:53:45;12.43;;;7.80;;
23496;SDS011;11925;48.122;11.560;2023-02-11T04:56:13;13.23;;;7.68;;
23496;SDS011;11925;48.122;11.560;2023-02-11T04:58:43;12.25;;;7.45;;
23496;SDS011;11925;48.122;11.560;2023-02-11T05:01:12;13.40;;;7.93;;
23496;SDS011;11925;48.122;11.560;2023-02-11T05:03:41;13.52;;;7.97;;
23496;SDS011;11925;48.122;11.560;2023-02-11T05:06:10;12.98;;;7.88;;
23496;SDS011;11925;48.122;11.560;2023-02-11T05:08:38;12.15;;;8.38;;
23496;SDS011;11925;48.122;11.560;2023-02-11T05:11:06;12.02;;;7.90;;
23496;SDS011;11925;48.122;11.560;2023-02-11T05:13:35;16.83;;;7.95;;
23496;SDS011;11925;48.122;11.560;2023-02-11T05:16:05;14.82;;;8.43;;
23496;SDS011;11925;48.122;11.560;2023-02-11T05:18:36;13.70;;;8.00;;
23496;SDS011;11925;48.122;11.560;2023-02-11T05:21:05;12.45;;;7.72;;
23496;SDS011;11925;48.122;11.560;2023-02-11T05:23:34;13.55;;;8.00;;
23496;SDS011;11925;48.122;11.560;2023-02-11T05:26:02;13.25;;;8.45;;
23496;SDS011;11925;48.122;11.560;2023-02-11T05:28:31;15.20;;;8.73;;
23496;SDS011;11925;48.122;11.560;2023-02-11T05:31:00;13.02;;;8.15;;
23496;SDS011;11925;48.122;11.560;2023-02-11T05:33:30;13.20;;;7.55;;
23496;SDS011;11925;48.122;11.560;2023-02-11T05:36:00;14.15;;;7.45;;
23496;SDS011;11925;48.122;11.560;2023-02-11T05:38:29;12.35;;;7.63;;
23496;SDS011;11925;48.122;11.560;2023-02-11T05:40:57;13.07;;;8.02;;
23496;SDS011;11925;48.122;11.560;2023-02-11T05:43:25;12.32;;;7.20;;
23496;SDS011;11925;48.122;11.560;2023-02-11T05:45:54;12.35;;;7.60;;
23496;SDS011;11925;48.122;11.560;2023-02-11T05:48:22;12.30;;;7.68;;
23496;SDS011;11925;48.122;11.560;2023-02-11T05:50:52;14.05;;;7.68;;
23496;SDS011;11925;48.122;11.560;2023-02-11T05:53:20;13.95;;;8.13;;
23496;SDS011;11925;48.122;11.560;2023-02-11T05:55:48;13.57;;;8.07;;
23496;SDS011;11925;48.122;11.560;2023-02-11T05:58:17;13.30;;;7.55;;
23496;SDS011;11925;48.122;11.560;2023-02-11T06:00:45;12.90;;;8.00;;
23496;SDS011;11925;48.122;11.560;2023-02-11T06:03:14;10.82;;;7.40;;
23496;SDS011;11925;48.122;11.560;2023-02-11T06:05:42;12.00;;;7.05;;
23496;SDS011;11925;48.122;11.560;2023-02-11T06:11:26;12.98;;;7.28;;
23496;SDS011;11925;48.122;11.560;2023-02-11T06:13:59;12.27;;;7.25;;
23496;SDS011;11925;48.122;11.560;2023-02-11T06:16:54;12.55;;;7.60;;
23496;SDS011;11925;48.122;11.560;2023-02-11T06:19:29;11.63;;;6.93;;
23496;SDS011;11925;48.122;11.560;2023-02-11T06:22:32;9.43;;;6.38;;
23496;SDS011;11925;48.122;11.560;2023-02-11T06:25:34;11.60;;;6.93;;
23496;SDS011;11925;48.122;11.560;2023-02-11T06:28:09;11.95;;;6.82;;
23496;SDS011;11925;48.122;11.560;2023-02-11T06:30:40;11.30;;;6.75;;
23496;SDS011;11925;48.122;11.560;2023-02-11T06:33:21;13.85;;;7.25;;
23496;SDS011;11925;48.122;11.560;2023-02-11T06:36:03;11.87;;;6.57;;
23496;SDS011;11925;48.122;11.560;2023-02-11T06:38:50;9.98;;;6.97;;
23496;SDS011;11925;48.122;11.560;2023-02-11T06:41:34;11.18;;;6.85;;
23496;SDS011;11925;48.122;11.560;2023-02-11T06:44:44;9.95;;;5.80;;
23496;SDS011;11925;48.122;11.560;2023-02-11T06:47:43;12.63;;;6.88;;
23496;SDS011;11925;48.122;11.560;2023-02-11T06:50:22;10.57;;;6.40;;
23496;SDS011;11925;48.122;11.560;2023-02-11T06:53:30;10.07;;;6.30;;
23496;SDS011;11925;48.122;11.560;2023-02-11T06:56:09;11.20;;;6.97;;
23496;SDS011;11925;48.122;11.560;2023-02-11T06:58:56;12.32;;;6.50;;
23496;SDS011;11925;48.122;11.560;2023-02-11T07:01:30;9.60;;;6.35;;
23496;SDS011;11925;48.122;11.560;2023-02-11T07:06:44;11.85;;;6.75;;
23496;SDS011;11925;48.122;11.560;2023-02-11T07:09:28;9.45;;;6.00;;
23496;SDS011;11925;48.122;11.560;2023-02-11T07:12:14;9.20;;;6.10;;
23496;SDS011;11925;48.122;11.560;2023-02-11T07:14:56;9.88;;;5.70;;
23496;SDS011;11925;48.122;11.560;2023-02-11T07:20:20;12.50;;;5.90;;
23496;SDS011;11925;48.122;11.560;2023-02-11T07:23:05;10.43;;;5.75;;
23496;SDS011;11925;48.122;11.560;2023-02-11T07:29:19;12.90;;;6.03;;
23496;SDS011;11925;48.122;11.560;2023-02-11T07:31:57;11.98;;;6.30;;
23496;SDS011;11925;48.122;11.560;2023-02-11T07:34:56;8.77;;;5.25;;
23496;SDS011;11925;48.122;11.560;2023-02-11T07:37:31;11.30;;;6.70;;
23496;SDS011;11925;48.122;11.560;2023-02-11T07:40:23;12.93;;;6.25;;
23496;SDS011;11925;48.122;11.560;2023-02-11T07:46:03;11.48;;;5.95;;
23496;SDS011;11925;48.122;11.560;2023-02-11T07:52:28;10.57;;;5.45;;
23496;SDS011;11925;48.122;11.560;2023-02-11T07:55:03;13.60;;;6.32;;
23496;SDS011;11925;48.122;11.560;2023-02-11T07:57:57;12.75;;;6.15;;
23496;SDS011;11925;48.122;11.560;2023-02-11T08:00:31;9.20;;;5.45;;
23496;SDS011;11925;48.122;11.560;2023-02-11T08:03:25;11.55;;;5.38;;
23496;SDS011;11925;48.122;11.560;2023-02-11T08:09:04;10.35;;;5.65;;
23496;SDS011;11925;48.122;11.560;2023-02-11T08:11:45;11.57;;;5.97;;
23496;SDS011;11925;48.122;11.560;2023-02-11T08:14:39;10.50;;;5.97;;
23496;SDS011;11925;48.122;11.560;2023-02-11T08:17:10;9.80;;;6.28;;
23496;SDS011;11925;48.122;11.560;2023-02-11T08:20:02;12.48;;;7.25;;
23496;SDS011;11925;48.122;11.560;2023-02-11T08:22:43;15.68;;;7.80;;
23496;SDS011;11925;48.122;11.560;2023-02-11T08:25:35;14.55;;;6.78;;
23496;SDS011;11925;48.122;11.560;2023-02-11T08:28:19;14.85;;;7.75;;
23496;SDS011;11925;48.122;11.560;2023-02-11T08:31:04;10.68;;;6.72;;
23496;SDS011;11925;48.122;11.560;2023-02-11T08:34:00;12.43;;;6.38;;
23496;SDS011;11925;48.122;11.560;2023-02-11T08:37:10;11.13;;;6.30;;
23496;SDS011;11925;48.122;11.560;2023-02-11T08:40:12;12.70;;;6.47;;
23496;SDS011;11925;48.122;11.560;2023-02-11T08:42:41;11.93;;;6.75;;
23496;SDS011;11925;48.122;11.560;2023-02-11T08:45:43;12.55;;;5.93;;
23496;SDS011;11925;48.122;11.560;2023-02-11T08:48:34;12.07;;;6.40;;
23496;SDS011;11925;48.122;11.560;2023-02-11T08:51:06;13.60;;;6.20;;
23496;SDS011;11925;48.122;11.560;2023-02-11T08:53:59;14.25;;;6.45;;
23496;SDS011;11925;48.122;11.560;2023-02-11T08:57:02;13.93;;;5.97;;
23496;SDS011;11925;48.122;11.560;2023-02-11T09:00:00;15.57;;;6.57;;
23496;SDS011;11925;48.122;11.560;2023-02-11T09:03:03;13.25;;;6.25;;
23496;SDS011;11925;48.122;11.560;2023-02-11T09:06:14;16.02;;;6.50;;
23496;SDS011;11925;48.122;11.560;2023-02-11T09:09:02;13.05;;;6.22;;
23496;SDS011;11925;48.122;11.560;2023-02-11T09:11:40;14.70;;;7.00;;
23496;SDS011;11925;48.122;11.560;2023-02-11T09:14:31;11.93;;;6.65;;
23496;SDS011;11925;48.122;11.560;2023-02-11T09:20:57;13.93;;;6.75;;
23496;SDS011;11925;48.122;11.560;2023-02-11T09:24:01;11.93;;;7.05;;
23496;SDS011;11925;48.122;11.560;2023-02-11T09:29:41;15.18;;;6.97;;
23496;SDS011;11925;48.122;11.560;2023-02-11T09:33:04;12.65;;;6.72;;
23496;SDS011;11925;48.122;11.560;2023-02-11T09:36:22;11.75;;;6.65;;
23496;SDS011;11925;48.122;11.560;2023-02-11T09:39:10;14.05;;;7.15;;
23496;SDS011;11925;48.122;11.560;2023-02-11T09:42:01;11.67;;;6.70;;
23496;SDS011;11925;48.122;11.560;2023-02-11T09:45:21;11.55;;;6.72;;
23496;SDS011;11925;48.122;11.560;2023-02-11T09:47:54;13.73;;;7.15;;
23496;SDS011;11925;48.122;11.560;2023-02-11T09:50:34;13.35;;;6.57;;
23496;SDS011;11925;48.122;11.560;2023-02-11T09:53:21;11.63;;;5.75;;
23496;SDS011;11925;48.122;11.560;2023-02-11T09:56:17;11.63;;;6.38;;
23496;SDS011;11925;48.122;11.560;2023-02-11T09:59:15;13.80;;;6.45;;
23496;SDS011;11925;48.122;11.560;2023-02-11T10:02:21;11.35;;;6.28;;
23496;SDS011;11925;48.122;11.560;2023-02-11T10:05:23;14.38;;;6.03;;
23496;SDS011;11925;48.122;11.560;2023-02-11T10:08:24;14.60;;;6.83;;
23496;SDS011;11925;48.122;11.560;2023-02-11T10:11:22;12.32;;;6.15;;
23496;SDS011;11925;48.122;11.560;2023-02-11T10:21:54;12.38;;;6.72;;
23496;SDS011;11925;48.122;11.560;2023-02-11T10:25:21;17.08;;;7.40;;
23496;SDS011;11925;48.122;11.560;2023-02-11T10:28:30;17.30;;;7.80;;
23496;SDS011;11925;48.122;11.560;2023-02-11T10:31:21;15.95;;;7.88;;
23496;SDS011;11925;48.122;11.560;2023-02-11T10:34:13;14.85;;;6.63;;
23496;SDS011;11925;48.122;11.560;2023-02-11T10:36:48;13.90;;;8.05;;
23496;SDS011;11925;48.122;11.560;2023-02-11T10:39:39;14.35;;;8.15;;
23496;SDS011;11925;48.122;11.560;2023-02-11T10:42:52;18.92;;;8.18;;
23496;SDS011;11925;48.122;11.560;2023-02-11T10:45:33;16.23;;;8.02;;
23496;SDS011;11925;48.122;11.560;2023-02-11T10:51:46;13.75;;;7.95;;
23496;SDS011;11925;48.122;11.560;2023-02-11T10:55:17;15.60;;;7.90;;
23496;SDS011;11925;48.122;11.560;2023-02-11T10:58:17;15.63;;;8.70;;
23496;SDS011;11925;48.122;11.560;2023-02-11T11:05:57;16.13;;;8.63;;
23496;SDS011;11925;48.122;11.560;2023-02-11T11:14:12;21.13;;;9.80;;
23496;SDS011;11925;48.122;11.560;2023-02-11T11:16:58;18.15;;;9.18;;
23496;SDS011;11925;48.122;11.560;2023-02-11T11:32:01;17.92;;;8.60;;
23496;SDS011;11925;48.122;11.560;2023-02-11T11:35:22;16.95;;;7.85;;
23496;SDS011;11925;48.122;11.560;2023-02-11T11:38:19;17.92;;;8.50;;
23496;SDS011;11925;48.122;11.560;2023-02-11T11:41:17;15.75;;;8.30;;
23496;SDS011;11925;48.122;11.560;2023-02-11T11:47:23;16.40;;;8.60;;
23496;SDS011;11925;48.122;11.560;2023-02-11T11:51:33;19.27;;;8.73;;
23496;SDS011;11925;48.122;11.560;2023-02-11T11:53:50;15.98;;;8.52;;
23496;SDS011;11925;48.122;11.560;2023-02-11T11:56:27;18.70;;;8.68;;
23496;SDS011;11925;48.122;11.560;2023-02-11T11:58:59;15.75;;;8.20;;
23496;SDS011;11925;48.122;11.560;2023-02-11T12:01:34;15.38;;;8.43;;
23496;SDS011;11925;48.122;11.560;2023-02-11T12:04:32;16.67;;;8.52;;
23496;SDS011;11925;48.122;11.560;2023-02-11T12:07:34;19.52;;;9.30;;
23496;SDS011;11925;48.122;11.560;2023-02-11T12:14:11;16.70;;;8.32;;
23496;SDS011;11925;48.122;11.560;2023-02-11T12:17:29;18.00;;;8.30;;
23496;SDS011;11925;48.122;11.560;2023-02-11T12:20:46;16.98;;;7.60;;
23496;SDS011;11925;48.122;11.560;2023-02-11T12:24:14;13.93;;;7.63;;
23496;SDS011;11925;48.122;11.560;2023-02-11T12:27:17;16.00;;;8.15;;
23496;SDS011;11925;48.122;11.560;2023-02-11T12:33:53;15.65;;;7.45;;
23496;SDS011;11925;48.122;11.560;2023-02-11T12:36:55;14.45;;;7.32;;
23496;SDS011;11925;48.122;11.560;2023-02-11T12:40:03;15.95;;;7.55;;
23496;SDS011;11925;48.122;11.560;2023-02-11T12:43:11;17.25;;;8.40;;
23496;SDS011;11925;48.122;11.560;2023-02-11T12:52:32;16.00;;;8.07;;
23496;SDS011;11925;48.122;11.560;2023-02-11T12:55:27;17.45;;;8.23;;
23496;SDS011;11925;48.122;11.560;2023-02-11T12:58:17;15.77;;;7.70;;
23496;SDS011;11925;48.122;11.560;2023-02-11T13:01:13;16.25;;;7.40;;
23496;SDS011;11925;48.122;11.560;2023-02-11T13:04:22;15.55;;;7.57;;
23496;SDS011;11925;48.122;11.560;2023-02-11T13:07:40;13.95;;;7.25;;
23496;SDS011;11925;48.122;11.560;2023-02-11T13:10:29;18.35;;;8.02;;
23496;SDS011;11925;48.122;11.560;2023-02-11T13:13:19;14.63;;;8.00;;
23496;SDS011;11925;48.122;11.560;2023-02-11T13:15:59;14.75;;;7.55;;
23496;SDS011;11925;48.122;11.560;2023-02-11T13:18:47;14.23;;;8.20;;
23496;SDS011;11925;48.122;11.560;2023-02-11T13:21:50;15.85;;;7.60;;
23496;SDS011;11925;48.122;11.560;2023-02-11T13:24:42;15.10;;;8.00;;
23496;SDS011;11925;48.122;11.560;2023-02-11T13:28:05;14.38;;;7.53;;
23496;SDS011;11925;48.122;11.560;2023-02-11T13:31:10;17.17;;;7.50;;
23496;SDS011;11925;48.122;11.560;2023-02-11T13:37:19;12.90;;;7.18;;
23496;SDS011;11925;48.122;11.560;2023-02-11T13:40:24;13.82;;;7.22;;
23496;SDS011;11925;48.122;11.560;2023-02-11T13:43:22;16.02;;;7.90;;
23496;SDS011;11925;48.122;11.560;2023-02-11T13:46:14;14.18;;;6.65;;
23496;SDS011;11925;48.122;11.560;2023-02-11T13:48:51;14.27;;;7.00;;
23496;SDS011;11925;48.122;11.560;2023-02-11T13:51:32;14.65;;;7.25;;
23496;SDS011;11925;48.122;11.560;2023-02-11T13:54:03;14.85;;;6.53;;
23496;SDS011;11925;48.122;11.560;2023-02-11T13:59:06;14.07;;;6.70;;
23496;SDS011;11925;48.122;11.560;2023-02-11T14:02:21;13.25;;;7.00;;
23496;SDS011;11925;48.122;11.560;2023-02-11T14:05:20;14.57;;;6.53;;
23496;SDS011;11925;48.122;11.560;2023-02-11T14:08:15;13.48;;;6.78;;
23496;SDS011;11925;48.122;11.560;2023-02-11T14:11:05;15.85;;;7.43;;
23496;SDS011;11925;48.122;11.560;2023-02-11T14:14:11;15.52;;;6.75;;
23496;SDS011;11925;48.122;11.560;2023-02-11T14:19:50;19.13;;;6.75;;
23496;SDS011;11925;48.122;11.560;2023-02-11T14:22:20;13.88;;;7.00;;
23496;SDS011;11925;48.122;11.560;2023-02-11T14:24:52;14.57;;;7.20;;
23496;SDS011;11925;48.122;11.560;2023-02-11T14:27:27;13.40;;;6.97;;
23496;SDS011;11925;48.122;11.560;2023-02-11T14:30:07;12.52;;;6.45;;
23496;SDS011;11925;48.122;11.560;2023-02-11T14:32:54;14.30;;;6.40;;
23496;SDS011;11925;48.122;11.560;2023-02-11T14:35:40;15.82;;;6.60;;
23496;SDS011;11925;48.122;11.560;2023-02-11T14:38:18;14.57;;;6.97;;
23496;SDS011;11925;48.122;11.560;2023-02-11T14:40:55;13.80;;;6.82;;
23496;SDS011;11925;48.122;11.560;2023-02-11T14:43:29;12.38;;;7.05;;
23496;SDS011;11925;48.122;11.560;2023-02-11T14:46:03;14.80;;;7.35;;
23496;SDS011;11925;48.122;11.560;2023-02-11T14:48:32;16.33;;;7.88;;
23496;SDS011;11925;48.122;11.560;2023-02-11T14:51:04;22.70;;;11.33;;
23496;SDS011;11925;48.122;11.560;2023-02-11T14:53:35;18.27;;;9.70;;
23496;SDS011;11925;48.122;11.560;2023-02-11T14:58:44;15.50;;;7.72;;
23496;SDS011;11925;48.122;11.560;2023-02-11T15:01:26;14.32;;;8.30;;
23496;SDS011;11925;48.122;11.560;2023-02-11T15:03:57;17.40;;;8.32;;
23496;SDS011;11925;48.122;11.560;2023-02-11T15:06:27;16.20;;;8.65;;
23496;SDS011;11925;48.122;11.560;2023-02-11T15:08:58;16.10;;;8.65;;
23496;SDS011;11925;48.122;11.560;2023-02-11T15:11:31;16.38;;;8.32;;
23496;SDS011;11925;48.122;11.560;2023-02-11T15:14:06;16.55;;;8.85;;
23496;SDS011;11925;48.122;11.560;2023-02-11T15:16:40;17.67;;;9.98;;
23496;SDS011;11925;48.122;11.560;2023-02-11T15:19:15;17.98;;;10.60;;
23496;SDS011;11925;48.122;11.560;2023-02-11T15:21:52;25.30;;;10.73;;
23496;SDS011;11925;48.122;11.560;2023-02-11T15:24:23;20.73;;;10.90;;
23496;SDS011;11925;48.122;11.560;2023-02-11T15:26:57;21.40;;;10.50;;
23496;SDS011;11925;48.122;11.560;2023-02-11T15:29:26;17.23;;;9.70;;
23496;SDS011;11925;48.122;11.560;2023-02-11T15:32:12;19.30;;;10.73;;
23496;SDS011;11925;48.122;11.560;2023-02-11T15:34:42;19.88;;;11.40;;
23496;SDS011;11925;48.122;11.560;2023-02-11T15:37:12;22.00;;;11.00;;
23496;SDS011;11925;48.122;11.560;2023-02-11T15:39:43;21.38;;;10.65;;
23496;SDS011;11925;48.122;11.560;2023-02-11T15:42:14;20.98;;;11.65;;
23496;SDS011;11925;48.122;11.560;2023-02-11T15:44:44;23.40;;;11.80;;
23496;SDS011;11925;48.122;11.560;2023-02-11T15:47:22;21.27;;;11.25;;
23496;SDS011;11925;48.122;11.560;2023-02-11T15:49:51;21.13;;;12.15;;
23496;SDS011;11925;48.122;11.560;2023-02-11T15:52:23;24.00;;;11.85;;
23496;SDS011;11925;48.122;11.560;2023-02-11T15:54:55;24.27;;;13.20;;
23496;SDS011;11925;48.122;11.560;2023-02-11T15:57:27;23.30;;;12.18;;
23496;SDS011;11925;48.122;11.560;2023-02-11T15:59:55;21.38;;;11.75;;
23496;SDS011;11925;48.122;11.560;2023-02-11T16:02:38;19.40;;;12.18;;
23496;SDS011;11925;48.122;11.560;2023-02-11T16:05:22;21.90;;;11.07;;
23496;SDS011;11925;48.122;11.560;2023-02-11T16:07:53;23.02;;;12.00;;
23496;SDS011;11925;48.122;11.560;2023-02-11T16:10:23;23.50;;;11.80;;
23496;SDS011;11925;48.122;11.560;2023-02-11T16:13:02;21.75;;;12.95;;
23496;SDS011;11925;48.122;11.560;2023-02-11T16:15:50;20.80;;;11.82;;
23496;SDS011;11925;48.122;11.560;2023-02-11T16:18:25;20.70;;;11.85;;
23496;SDS011;11925;48.122;11.560;2023-02-11T16:21:04;21.67;;;12.18;;
23496;SDS011;11925;48.122;11.560;2023-02-11T16:23:39;21.52;;;12.70;;
23496;SDS011;11925;48.122;11.560;2023-02-11T16:26:10;22.63;;;12.02;;
23496;SDS011;11925;48.122;11.560;2023-02-11T16:28:47;23.00;;;12.60;;
23496;SDS011;11925;48.122;11.560;2023-02-11T16:31:15;21.10;;;13.07;;
23496;SDS011;11925;48.122;11.560;2023-02-11T16:33:45;30.02;;;13.25;;
23496;SDS011;11925;48.122;11.560;2023-02-11T16:36:14;74.70;;;37.85;;
23496;SDS011;11925;48.122;11.560;2023-02-11T16:38:43;187.48;;;93.40;;
23496;SDS011;11925;48.122;11.560;2023-02-11T16:41:11;286.92;;;135.55;;
23496;SDS011;11925;48.122;11.560;2023-02-11T16:43:40;276.23;;;134.18;;
23496;SDS011;11925;48.122;11.560;2023-02-11T16:46:12;228.40;;;115.43;;
23496;SDS011;11925;48.122;11.560;2023-02-11T16:48:41;260.58;;;132.60;;
23496;SDS011;11925;48.122;11.560;2023-02-11T16:51:11;240.25;;;119.63;;
23496;SDS011;11925;48.122;11.560;2023-02-11T16:53:40;222.38;;;108.28;;
23496;SDS011;11925;48.122;11.560;2023-02-11T16:56:10;181.07;;;91.38;;
23496;SDS011;11925;48.122;11.560;2023-02-11T16:58:42;188.27;;;98.28;;
23496;SDS011;11925;48.122;11.560;2023-02-11T17:01:11;253.07;;;128.43;;
23496;SDS011;11925;48.122;11.560;2023-02-11T17:03:39;282.65;;;141.55;;
23496;SDS011;11925;48.122;11.560;2023-02-11T17:06:09;268.63;;;134.70;;